Schneifelwetter: Wetterstation Hallschlag, 537 m . NN
Wetterdaten: Mittwoch, 12.09.2012
Datum Zeit Temp. A. Feuchte A. Luftdruck Regen Wind Richtung Richtung Sonnenschein T Regen Taupunkt Windchill
12.09.2012 00:14 9,3 C 89 % 1013 hPa 0,0 l/m 0,0 km/h (0 Bft) NW 310 0 min 0 min 7,6 C 9,3 C
12.09.2012 00:29 9,0 C 90 % 1013 hPa 0,0 l/m 0,4 km/h (0 Bft) NW 310 0 min 0 min 7,4 C 9,0 C
12.09.2012 00:44 8,8 C 90 % 1013 hPa 0,0 l/m 0,0 km/h (0 Bft) NW 310 0 min 0 min 7,3 C 8,8 C
12.09.2012 00:59 8,6 C 90 % 1013 hPa 0,0 l/m 0,0 km/h (0 Bft) NW 310 0 min 0 min 7,1 C 8,6 C
12.09.2012 01:14 8,4 C 90 % 1013 hPa 0,0 l/m 0,6 km/h (0 Bft) NW 310 0 min 0 min 6,9 C 8,4 C
12.09.2012 01:29 8,2 C 91 % 1013 hPa 0,0 l/m 0,0 km/h (0 Bft) NW 310 0 min 0 min 6,8 C 8,2 C
12.09.2012 01:44 8,1 C 91 % 1013 hPa 0,0 l/m 0,4 km/h (0 Bft) NW 310 0 min 0 min 6,7 C 8,1 C
12.09.2012 01:59 8,0 C 91 % 1013 hPa 0,0 l/m 0,8 km/h (0 Bft) NW 310 0 min 0 min 6,6 C 8,0 C
12.09.2012 02:14 8,0 C 91 % 1013 hPa 0,0 l/m 0,0 km/h (0 Bft) NW 310 0 min 0 min 6,6 C 8,0 C
12.09.2012 02:29 8,0 C 92 % 1013 hPa 0,0 l/m 5,1 km/h (1 Bft) NW 315 0 min 0 min 6,8 C 8,0 C
12.09.2012 02:44 8,2 C 92 % 1013 hPa 0,0 l/m 0,9 km/h (0 Bft) W 280 0 min 0 min 7,0 C 8,2 C
12.09.2012 02:59 8,4 C 93 % 1013 hPa 0,0 l/m 8,7 km/h (2 Bft) W 275 0 min 0 min 7,3 C 6,7 C
12.09.2012 03:14 8,3 C 93 % 1012 hPa 0,0 l/m 2,9 km/h (1 Bft) W-SW 250 0 min 0 min 7,2 C 8,3 C
12.09.2012 03:29 8,4 C 93 % 1012 hPa 0,0 l/m 5,0 km/h (1 Bft) W-SW 250 0 min 0 min 7,3 C 8,4 C
12.09.2012 03:44 8,4 C 93 % 1012 hPa 0,0 l/m 0,9 km/h (0 Bft) W-SW 250 0 min 0 min 7,3 C 8,4 C
12.09.2012 03:59 8,4 C 93 % 1012 hPa 0,0 l/m 10,6 km/h (2 Bft) W-SW 255 0 min 0 min 7,3 C 5,5 C
12.09.2012 04:14 8,5 C 94 % 1012 hPa 0,0 l/m 9,4 km/h (2 Bft) W-SW 255 0 min 0 min 7,6 C 6,3 C
12.09.2012 04:29 8,7 C 94 % 1012 hPa 0,0 l/m 8,6 km/h (2 Bft) W-SW 255 0 min 0 min 7,8 C 7,1 C
12.09.2012 04:44 8,8 C 94 % 1012 hPa 0,0 l/m 7,6 km/h (2 Bft) W-SW 255 0 min 0 min 7,9 C 7,9 C
12.09.2012 04:59 8,8 C 93 % 1012 hPa 0,0 l/m 10,7 km/h (2 Bft) W-SW 255 0 min 0 min 7,7 C 5,9 C
12.09.2012 05:14 8,7 C 93 % 1012 hPa 0,0 l/m 7,6 km/h (2 Bft) W-SW 255 0 min 0 min 7,6 C 7,8 C
12.09.2012 05:29 8,5 C 93 % 1012 hPa 0,0 l/m 9,7 km/h (2 Bft) W-SW 255 0 min 0 min 7,4 C 6,1 C
12.09.2012 05:44 8,3 C 93 % 1012 hPa 0,0 l/m 9,4 km/h (2 Bft) W-SW 255 0 min 0 min 7,2 C 6,1 C
12.09.2012 05:59 8,1 C 93 % 1012 hPa 0,0 l/m 14,0 km/h (3 Bft) W-SW22.5 255 0 min 0 min 7,0 C 3,3 C
12.09.2012 06:14 8,0 C 93 % 1012 hPa 0,0 l/m 16,3 km/h (3 Bft) W22.5 265 0 min 0 min 6,9 C 2,1 C
12.09.2012 06:29 7,9 C 93 % 1012 hPa 0,0 l/m 10,7 km/h (2 Bft) W-SW22.5 250 0 min 0 min 6,8 C 4,8 C
12.09.2012 06:44 7,8 C 93 % 1012 hPa 0,0 l/m 14,4 km/h (3 Bft) W22.5 260 0 min 0 min 6,7 C 2,7 C
12.09.2012 06:59 7,8 C 93 % 1012 hPa 0,0 l/m 11,1 km/h (2 Bft) W22.5 260 0 min 0 min 6,7 C 4,5 C
12.09.2012 07:14 7,7 C 93 % 1013 hPa 0,0 l/m 12,9 km/h (3 Bft) W 270 0 min 0 min 6,6 C 3,4 C
12.09.2012 07:29 7,6 C 93 % 1013 hPa 0,0 l/m 13,3 km/h (3 Bft) W 260 0 min 0 min 6,5 C 3,1 C
12.09.2012 07:44 7,6 C 93 % 1013 hPa 0,0 l/m 9,2 km/h (2 Bft) W-SW22.5 250 0 min 0 min 6,5 C 5,5 C
12.09.2012 07:59 7,6 C 93 % 1013 hPa 0,0 l/m 11,3 km/h (2 Bft) W-SW 250 0 min 0 min 6,5 C 4,1 C
12.09.2012 08:14 7,7 C 93 % 1013 hPa 0,0 l/m 10,3 km/h (2 Bft) W 260 0 min 0 min 6,6 C 4,9 C
12.09.2012 08:29 8,1 C 93 % 1013 hPa 0,0 l/m 11,3 km/h (2 Bft) W-SW 255 0 min 0 min 7,0 C 4,7 C
12.09.2012 08:44 8,5 C 93 % 1013 hPa 0,0 l/m 13,5 km/h (3 Bft) W-SW 255 0 min 0 min 7,4 C 4,0 C
12.09.2012 08:59 8,6 C 92 % 1013 hPa 0,0 l/m 16,0 km/h (3 Bft) W-SW22.5 245 0 min 0 min 7,4 C 3,0 C
12.09.2012 09:14 8,5 C 91 % 1013 hPa 0,0 l/m 19,0 km/h (3 Bft) W22.5 260 0 min 0 min 7,1 C 1,7 C
12.09.2012 09:29 8,4 C 91 % 1013 hPa 0,0 l/m 14,8 km/h (3 Bft) W45 260 0 min 0 min 7,0 C 3,3 C
12.09.2012 09:44 8,5 C 91 % 1013 hPa 0,0 l/m 15,2 km/h (3 Bft) W22.5 265 0 min 0 min 7,1 C 3,2 C
12.09.2012 09:59 9,0 C 91 % 1013 hPa 0,0 l/m 12,9 km/h (3 Bft) W-SW22.5 250 0 min 0 min 7,6 C 4,9 C
12.09.2012 10:14 9,5 C 89 % 1013 hPa 0,0 l/m 20,1 km/h (4 Bft) W22.5 260 0 min 0 min 7,8 C 2,6 C
12.09.2012 10:29 10,0 C 87 % 1013 hPa 0,0 l/m 20,0 km/h (4 Bft) W45 265 0 min 0 min 7,9 C 3,3 C
12.09.2012 10:44 10,5 C 86 % 1013 hPa 0,0 l/m 21,6 km/h (4 Bft) W-SW22.5 255 0 min 0 min 8,3 C 3,4 C
12.09.2012 10:59 11,0 C 84 % 1013 hPa 0,0 l/m 20,5 km/h (4 Bft) W45 260 0 min 0 min 8,4 C 4,4 C
12.09.2012 11:14 11,2 C 83 % 1013 hPa 0,0 l/m 21,1 km/h (4 Bft) W45 280 0 min 0 min 8,4 C 4,5 C
12.09.2012 11:29 11,4 C 82 % 1013 hPa 0,0 l/m 14,8 km/h (3 Bft) W22.5 260 0 min 0 min 8,4 C 6,9 C
12.09.2012 11:45 11,4 C 81 % 1013 hPa 0,0 l/m 25,0 km/h (4 Bft) W45 270 0 min 0 min 8,3 C 3,7 C
12.09.2012 11:59 11,7 C 79 % 1013 hPa 0,0 l/m 21,6 km/h (4 Bft) W-SW67.5 250 0 min 0 min 8,2 C 5,0 C
12.09.2012 12:14 12,2 C 74 % 1013 hPa 0,0 l/m 20,9 km/h (4 Bft) W22.5 265 0 min 0 min 7,7 C 5,9 C
12.09.2012 12:29 12,5 C 74 % 1013 hPa 0,0 l/m 22,5 km/h (4 Bft) W45 260 0 min 0 min 8,0 C 5,8 C
12.09.2012 12:44 11,6 C 74 % 1013 hPa 0,0 l/m 23,0 km/h (4 Bft) W45 270 0 min 0 min 7,1 C 4,5 C
12.09.2012 12:59 11,8 C 75 % 1013 hPa 0,0 l/m 14,0 km/h (3 Bft) W-SW22.5 245 0 min 0 min 7,5 C 7,7 C
12.09.2012 13:14 12,4 C 73 % 1013 hPa 0,0 l/m 21,2 km/h (4 Bft) W22.5 270 0 min 0 min 7,7 C 6,0 C
12.09.2012 13:29 11,4 C 72 % 1013 hPa 0,0 l/m 25,2 km/h (4 Bft) W45 275 0 min 0 min 6,5 C 3,7 C
12.09.2012 13:44 11,2 C 73 % 1013 hPa 0,0 l/m 22,5 km/h (4 Bft) W45 270 0 min 0 min 6,5 C 4,1 C
12.09.2012 13:59 12,0 C 70 % 1013 hPa 0,0 l/m 26,6 km/h (4 Bft) W22.5 260 0 min 0 min 6,7 C 4,2 C
12.09.2012 14:14 12,6 C 70 % 1013 hPa 0,0 l/m 30,4 km/h (5 Bft) W45 270 0 min 0 min 7,3 C 4,2 C
12.09.2012 14:29 12,9 C 66 % 1013 hPa 0,0 l/m 31,9 km/h (5 Bft) W22.5 270 0 min 0 min 6,7 C 4,4 C
12.09.2012 14:44 12,4 C 66 % 1013 hPa 0,0 l/m 23,0 km/h (4 Bft) W45 265 0 min 0 min 6,2 C 5,6 C
12.09.2012 14:59 11,4 C 70 % 1013 hPa 0,0 l/m 21,0 km/h (4 Bft) W45 265 0 min 0 min 6,1 C 4,8 C
12.09.2012 15:14 10,5 C 73 % 1013 hPa 0,0 l/m 16,5 km/h (3 Bft) N-NW22.5 345 0 min 0 min 5,9 C 5,1 C
12.09.2012 15:29 10,6 C 74 % 1013 hPa 0,0 l/m 24,6 km/h (4 Bft) W67.5 260 0 min 0 min 6,2 C 2,7 C
12.09.2012 15:44 10,6 C 73 % 1013 hPa 0,0 l/m 17,1 km/h (3 Bft) W45 265 0 min 0 min 6,0 C 5,0 C
12.09.2012 15:59 10,9 C 73 % 1013 hPa 0,0 l/m 19,4 km/h (3 Bft) W-SW45 245 0 min 0 min 6,3 C 4,6 C
12.09.2012 16:14 11,5 C 72 % 1012 hPa 0,0 l/m 15,3 km/h (3 Bft) W22.5 260 0 min 0 min 6,6 C 6,8 C
12.09.2012 16:29 11,7 C 70 % 1012 hPa 0,0 l/m 23,7 km/h (4 Bft) W-SW22.5 255 0 min 0 min 6,4 C 4,5 C
12.09.2012 16:44 11,1 C 71 % 1012 hPa 0,0 l/m 22,0 km/h (4 Bft) W 265 0 min 0 min 6,0 C 4,1 C
12.09.2012 16:59 12,0 C 72 % 1012 hPa 0,0 l/m 23,6 km/h (4 Bft) W45 260 0 min 0 min 7,1 C 4,9 C
12.09.2012 17:14 12,1 C 66 % 1012 hPa 0,0 l/m 25,8 km/h (4 Bft) W45 280 0 min 0 min 5,9 C 4,5 C
12.09.2012 17:29 10,4 C 72 % 1012 hPa 0,0 l/m 22,9 km/h (4 Bft) W-NW45 285 0 min 0 min 5,6 C 2,9 C
12.09.2012 17:44 10,4 C 75 % 1012 hPa 0,0 l/m 9,6 km/h (2 Bft) W 270 0 min 0 min 6,2 C 8,3 C
12.09.2012 17:59 10,4 C 75 % 1013 hPa 0,0 l/m 11,6 km/h (2 Bft) W45 275 0 min 0 min 6,2 C 7,2 C
12.09.2012 18:14 10,0 C 76 % 1013 hPa 0,0 l/m 11,0 km/h (2 Bft) W 260 0 min 0 min 6,0 C 7,0 C
12.09.2012 18:29 9,5 C 76 % 1013 hPa 0,0 l/m 9,6 km/h (2 Bft) W 260 0 min 0 min 5,5 C 7,3 C
12.09.2012 18:44 9,2 C 78 % 1013 hPa 0,0 l/m 0,0 km/h (0 Bft) W 260 0 min 0 min 5,6 C 9,2 C
12.09.2012 18:59 9,2 C 78 % 1013 hPa 0,0 l/m 4,3 km/h (1 Bft) W 260 0 min 0 min 5,6 C 9,2 C
12.09.2012 19:14 9,3 C 79 % 1013 hPa 0,0 l/m 5,0 km/h (1 Bft) W 260 0 min 0 min 5,8 C 9,3 C
12.09.2012 19:29 9,2 C 79 % 1013 hPa 0,0 l/m 0,4 km/h (0 Bft) W-SW 255 0 min 0 min 5,8 C 9,2 C
12.09.2012 19:44 9,0 C 78 % 1013 hPa 0,0 l/m 0,4 km/h (0 Bft) W-SW 255 0 min 0 min 5,4 C 9,0 C
12.09.2012 19:59 8,3 C 79 % 1013 hPa 0,0 l/m 0,0 km/h (0 Bft) W 260 0 min 0 min 4,9 C 8,3 C
12.09.2012 20:14 7,3 C 80 % 1013 hPa 0,0 l/m 0,0 km/h (0 Bft) W 260 0 min 0 min 4,1 C 7,3 C
12.09.2012 20:29 6,2 C 82 % 1013 hPa 0,0 l/m 0,0 km/h (0 Bft) W 260 0 min 0 min 3,4 C 6,2 C
12.09.2012 20:44 5,4 C 83 % 1013 hPa 0,0 l/m 0,0 km/h (0 Bft) W-SW 255 0 min 0 min 2,7 C 5,4 C
12.09.2012 20:59 4,7 C 84 % 1013 hPa 0,0 l/m 0,0 km/h (0 Bft) W 260 0 min 0 min 2,2 C 4,7 C
12.09.2012 21:14 4,3 C 85 % 1013 hPa 0,0 l/m 0,0 km/h (0 Bft) W 260 0 min 0 min 2,0 C 4,3 C
12.09.2012 21:29 3,9 C 86 % 1013 hPa 0,0 l/m 0,0 km/h (0 Bft) W 260 0 min 0 min 1,8 C 3,9 C
12.09.2012 21:44 3,7 C 87 % 1013 hPa 0,0 l/m 0,0 km/h (0 Bft) W 260 0 min 0 min 1,7 C 3,7 C
12.09.2012 21:59 3,4 C 87 % 1013 hPa 0,0 l/m 0,0 km/h (0 Bft) W 260 0 min 0 min 1,4 C 3,4 C
12.09.2012 22:14 3,1 C 87 % 1013 hPa 0,0 l/m 0,0 km/h (0 Bft) W 260 0 min 0 min 1,2 C 3,1 C
12.09.2012 22:29 2,9 C 88 % 1013 hPa 0,0 l/m 0,0 km/h (0 Bft) W 260 0 min 0 min 1,1 C 2,9 C
12.09.2012 22:44 2,8 C 89 % 1013 hPa 0,0 l/m 0,0 km/h (0 Bft) W-SW 255 0 min 0 min 1,2 C 2,8 C
12.09.2012 22:59 2,7 C 89 % 1013 hPa 0,0 l/m 0,0 km/h (0 Bft) W-SW 255 0 min 0 min 1,1 C 2,7 C
12.09.2012 23:14 2,7 C 90 % 1013 hPa 0,0 l/m 0,0 km/h (0 Bft) W-SW 255 0 min 0 min 1,2 C 2,7 C
12.09.2012 23:29 2,9 C 91 % 1013 hPa 0,0 l/m 0,0 km/h (0 Bft) W-SW 255 0 min 0 min 1,6 C 2,9 C
12.09.2012 23:44 3,1 C 91 % 1013 hPa 0,0 l/m 0,0 km/h (0 Bft) W-SW 255 0 min 0 min 1,8 C 3,1 C
12.09.2012 23:59 3,3 C 91 % 1013 hPa 0,0 l/m 0,0 km/h (0 Bft) W-SW 255 0 min 0 min 2,0 C 3,3 C
_ Min-Zeit 22:59 14:29 03:14 - 00:14 - - - - 22:59 09:14
Minimum _ 2,7 C 66 % 1012 hPa - 0,0 km/h (0 Bft) - - - - 1,1 C 1,7 C
_ Max-Zeit 14:29 04:14 00:14 00:14 14:29 - - 00:14 00:14 11:29 00:14
Maximum _ 12,9 C 94 % 1013 hPa 0,0 l/m 31,9 km/h
W (5 Bft)
- - 0 min 0 min 8,4 C 9,3 C
Durchschnitt _ 8,7 C 84 % 1013 hPa #0,0 l/m 10,8 km/h (2 Bft) W - #0 min. #0 min. 6,1 C 5,5 C